createdAt,value
2023-04-27T00:02:06.310Z,69.00
2023-04-27T00:04:35.703Z,68.30
2023-04-27T00:07:03.641Z,68.30
2023-04-27T00:09:31.432Z,68.10
2023-04-27T00:11:59.314Z,68.40
2023-04-27T00:14:28.538Z,68.20
2023-04-27T00:16:56.854Z,68.10
2023-04-27T00:19:24.678Z,68.20
2023-04-27T00:21:53.834Z,68.10
2023-04-27T00:24:21.666Z,68.20
2023-04-27T00:26:49.648Z,68.20
2023-04-27T00:29:17.482Z,68.10
2023-04-27T00:31:45.520Z,68.40
2023-04-27T00:34:13.467Z,68.30
2023-04-27T00:36:41.254Z,68.60
2023-04-27T00:39:10.833Z,68.70
2023-04-27T00:41:39.671Z,68.90
2023-04-27T00:44:07.562Z,69.10
2023-04-27T00:46:36.124Z,69.30
2023-04-27T00:49:04.130Z,69.30
2023-04-27T00:51:32.193Z,69.40
2023-04-27T00:54:00.977Z,69.40
2023-04-27T00:56:30.200Z,69.30
2023-04-27T00:58:58.147Z,69.20
2023-04-27T01:01:26.895Z,68.50
2023-04-27T01:03:55.636Z,69.40
2023-04-27T01:06:23.678Z,69.10
2023-04-27T01:08:51.566Z,69.10
2023-04-27T01:11:19.963Z,69.00
2023-04-27T01:13:49.646Z,69.20
2023-04-27T01:16:19.422Z,69.20
2023-04-27T01:18:48.735Z,69.60
2023-04-27T01:21:16.580Z,69.80
2023-04-27T01:23:46.007Z,69.80
2023-04-27T01:26:16.258Z,70.00
2023-04-27T01:28:44.501Z,70.00
2023-04-27T01:31:12.736Z,70.00
2023-04-27T01:33:40.923Z,71.10
2023-04-27T01:36:10.530Z,70.00
2023-04-27T01:38:38.545Z,70.00
2023-04-27T01:41:09.247Z,69.90
2023-04-27T01:43:38.036Z,70.10
2023-04-27T01:46:09.765Z,69.90
2023-04-27T01:48:38.123Z,70.00
2023-04-27T01:51:06.174Z,69.80
2023-04-27T01:53:34.138Z,69.90
2023-04-27T01:56:02.063Z,69.80
2023-04-27T01:58:31.497Z,70.00
2023-04-27T02:00:59.337Z,70.20
2023-04-27T02:03:27.302Z,70.20
2023-04-27T02:05:55.448Z,70.10
2023-04-27T02:08:23.313Z,70.20
2023-04-27T02:10:51.266Z,70.10
2023-04-27T02:13:19.136Z,70.00
2023-04-27T02:15:49.009Z,70.00
2023-04-27T02:18:16.940Z,70.30
2023-04-27T02:20:44.721Z,70.30
2023-04-27T02:23:12.999Z,70.40
2023-04-27T02:25:44.553Z,70.20
2023-04-27T02:28:12.663Z,70.20
2023-04-27T02:30:41.348Z,70.30
2023-04-27T02:33:10.604Z,70.50
2023-04-27T02:35:38.506Z,70.70
2023-04-27T02:38:06.670Z,70.40
2023-04-27T02:40:34.950Z,71.70
2023-04-27T02:43:02.752Z,70.60
2023-04-27T02:45:30.768Z,70.70
2023-04-27T02:47:58.582Z,70.70
2023-04-27T02:50:27.758Z,70.50
2023-04-27T02:52:55.766Z,70.60
2023-04-27T02:55:23.556Z,70.60
2023-04-27T02:57:51.503Z,70.50
2023-04-27T03:00:19.855Z,70.50
2023-04-27T03:02:47.948Z,70.70
2023-04-27T03:05:16.129Z,70.70
2023-04-27T03:07:45.695Z,70.80
2023-04-27T03:10:13.666Z,71.00
2023-04-27T03:12:41.532Z,71.10
2023-04-27T03:15:10.507Z,71.10
2023-04-27T03:17:38.318Z,71.30
2023-04-27T03:20:09.609Z,71.30
2023-04-27T03:22:37.462Z,71.40
2023-04-27T03:25:07.798Z,71.50
2023-04-27T03:27:35.648Z,71.60
2023-04-27T03:30:04.435Z,71.50
2023-04-27T03:32:32.306Z,71.50
2023-04-27T03:35:00.158Z,71.60
2023-04-27T03:37:28.249Z,71.80
2023-04-27T03:39:56.076Z,71.90
2023-04-27T03:42:25.358Z,71.90
2023-04-27T03:44:53.206Z,71.80
2023-04-27T03:47:21.905Z,71.70
2023-04-27T03:49:51.024Z,71.90
2023-04-27T03:52:18.790Z,72.00
2023-04-27T03:54:47.691Z,71.90
2023-04-27T03:57:16.239Z,72.00
2023-04-27T03:59:45.948Z,71.70
2023-04-27T04:02:14.696Z,72.00
2023-04-27T04:04:42.949Z,72.10
2023-04-27T04:07:11.833Z,72.30
2023-04-27T04:09:39.647Z,72.20
2023-04-27T04:12:07.953Z,72.40
2023-04-27T04:14:35.810Z,72.50
2023-04-27T04:17:05.063Z,72.70
2023-04-27T04:19:34.678Z,74.10
2023-04-27T04:22:02.530Z,72.80
2023-04-27T04:24:30.301Z,72.80
2023-04-27T04:26:58.620Z,72.80
2023-04-27T04:29:27.210Z,72.50
2023-04-27T04:31:56.392Z,72.90
2023-04-27T04:34:25.581Z,72.90
2023-04-27T04:36:53.433Z,72.90
2023-04-27T04:39:21.507Z,72.70
2023-04-27T04:41:50.412Z,72.90
2023-04-27T04:44:18.210Z,72.80
2023-04-27T04:46:47.029Z,73.00
2023-04-27T04:49:15.090Z,73.20
2023-04-27T04:51:46.231Z,73.10
2023-04-27T04:54:14.625Z,73.20
2023-04-27T04:56:42.527Z,73.40
2023-04-27T04:59:10.640Z,73.50
2023-04-27T05:01:38.565Z,73.70
2023-04-27T05:04:06.726Z,74.00
2023-04-27T05:06:35.158Z,73.90
2023-04-27T05:09:05.131Z,73.90
2023-04-27T05:11:32.931Z,74.00
2023-04-27T05:14:00.906Z,74.10
2023-04-27T05:16:28.762Z,74.20
2023-04-27T05:18:56.571Z,74.30
2023-04-27T05:21:24.396Z,74.30
2023-04-27T05:23:52.256Z,74.50
2023-04-27T05:26:21.612Z,74.50
2023-04-27T05:28:50.710Z,74.80
2023-04-27T05:31:18.794Z,74.80
2023-04-27T05:33:46.951Z,75.30
2023-04-27T05:36:14.913Z,75.50
2023-04-27T05:38:43.668Z,75.70
2023-04-27T05:41:11.786Z,75.90
2023-04-27T05:43:40.989Z,76.00
2023-04-27T05:46:09.295Z,76.20
2023-04-27T05:48:37.187Z,76.10
2023-04-27T05:51:05.606Z,76.40
2023-04-27T05:53:34.367Z,76.70
2023-04-27T05:56:04.330Z,77.00
2023-04-27T05:58:32.902Z,77.00
2023-04-27T06:01:03.535Z,77.10
2023-04-27T06:03:31.680Z,77.30
2023-04-27T06:06:01.328Z,77.30
2023-04-27T06:08:29.537Z,77.60
2023-04-27T06:10:57.797Z,77.70
2023-04-27T06:13:25.894Z,77.90
2023-04-27T06:15:53.788Z,77.90
2023-04-27T06:18:23.093Z,78.10
2023-04-27T06:20:51.382Z,78.40
2023-04-27T06:23:19.321Z,79.40
2023-04-27T06:25:47.521Z,78.40
2023-04-27T06:28:15.941Z,78.30
2023-04-27T06:30:43.767Z,78.30
2023-04-27T06:33:11.699Z,78.30
2023-04-27T06:35:41.223Z,78.30
2023-04-27T06:38:09.015Z,78.30
2023-04-27T06:40:37.811Z,78.10
2023-04-27T06:43:05.718Z,78.30
2023-04-27T06:45:33.525Z,77.80
2023-04-27T06:48:01.441Z,77.60
2023-04-27T06:50:29.350Z,77.30
2023-04-27T06:52:58.766Z,77.20
2023-04-27T06:55:26.638Z,77.20
2023-04-27T06:57:54.496Z,77.10
2023-04-27T07:00:22.860Z,76.80
2023-04-27T07:02:51.818Z,76.40
2023-04-27T07:05:20.034Z,76.30
2023-04-27T07:07:48.707Z,75.40
2023-04-27T07:10:17.986Z,75.00
2023-04-27T07:12:46.116Z,74.60
2023-04-27T07:15:15.111Z,74.30
2023-04-27T07:17:42.993Z,74.20
2023-04-27T07:20:10.942Z,74.00
2023-04-27T07:22:38.857Z,73.50
2023-04-27T07:25:07.488Z,72.50
2023-04-27T07:27:38.316Z,72.50
2023-04-27T07:30:09.355Z,70.70
2023-04-27T07:32:38.311Z,70.50
2023-04-27T07:35:07.105Z,70.70
2023-04-27T07:37:34.951Z,69.60
2023-04-27T07:40:06.050Z,69.10
2023-04-27T07:42:33.872Z,68.40
2023-04-27T07:45:03.123Z,67.70
2023-04-27T07:47:31.013Z,67.20
2023-04-27T07:49:58.793Z,67.00
2023-04-27T07:52:26.660Z,66.90
2023-04-27T07:54:54.577Z,65.80
2023-04-27T07:57:22.550Z,64.20
2023-04-27T07:59:50.931Z,63.10
2023-04-27T08:02:20.580Z,61.10
2023-04-27T08:04:49.522Z,60.90
2023-04-27T08:07:18.171Z,61.50
2023-04-27T08:09:46.170Z,61.20
2023-04-27T08:12:14.208Z,61.20
2023-04-27T08:14:42.058Z,61.80
2023-04-27T08:17:09.915Z,61.70
2023-04-27T08:19:39.639Z,60.90
2023-04-27T08:22:07.478Z,59.50
2023-04-27T08:24:35.342Z,60.10
2023-04-27T08:27:04.282Z,59.90
2023-04-27T08:29:32.340Z,59.30
2023-04-27T08:32:02.264Z,59.70
2023-04-27T08:34:30.675Z,58.70
2023-04-27T08:37:00.294Z,59.10
2023-04-27T08:39:28.741Z,58.20
2023-04-27T08:41:56.824Z,58.60
2023-04-27T08:44:24.763Z,58.30
2023-04-27T08:46:52.734Z,58.50
2023-04-27T08:49:21.665Z,58.50
2023-04-27T08:51:50.794Z,58.30
2023-04-27T08:54:21.855Z,56.50
2023-04-27T08:56:50.998Z,56.80
2023-04-27T08:59:18.816Z,57.30
2023-04-27T09:01:49.326Z,55.50
2023-04-27T09:04:18.687Z,55.60
2023-04-27T09:06:46.854Z,55.20
2023-04-27T09:09:25.051Z,54.80
2023-04-27T09:11:52.995Z,54.50
2023-04-27T09:14:23.400Z,54.90
2023-04-27T09:16:58.004Z,55.00
2023-04-27T09:19:27.122Z,53.60
2023-04-27T09:22:04.780Z,53.10
2023-04-27T09:24:34.042Z,52.60
2023-04-27T09:27:03.186Z,52.40
2023-04-27T09:29:35.249Z,52.10
2023-04-27T09:32:03.605Z,50.80
2023-04-27T09:34:40.998Z,50.80
2023-04-27T09:37:09.867Z,49.10
2023-04-27T09:39:39.700Z,48.60
2023-04-27T09:42:08.443Z,50.00
2023-04-27T09:44:37.105Z,50.80
2023-04-27T09:47:05.920Z,51.40
2023-04-27T09:49:35.992Z,52.10
2023-04-27T09:52:04.079Z,51.70
2023-04-27T09:54:34.459Z,51.70
2023-04-27T09:57:15.449Z,52.00
2023-04-27T10:00:01.260Z,50.90
2023-04-27T10:02:33.112Z,49.10
2023-04-27T10:05:27.046Z,51.30
2023-04-27T10:07:55.152Z,50.80
2023-04-27T10:10:23.213Z,51.20
2023-04-27T10:13:01.788Z,51.00
2023-04-27T10:15:30.491Z,50.90
2023-04-27T10:18:06.338Z,51.00
2023-04-27T10:20:35.866Z,51.20
2023-04-27T10:23:04.144Z,51.20
2023-04-27T10:25:40.151Z,51.00
2023-04-27T10:28:09.457Z,50.30
2023-04-27T10:30:38.735Z,49.10
2023-04-27T10:33:08.369Z,49.10
2023-04-27T10:35:37.855Z,49.40
2023-04-27T10:38:09.423Z,50.00
2023-04-27T10:40:38.733Z,50.00
2023-04-27T10:43:12.916Z,49.40
2023-04-27T10:45:40.907Z,48.00
2023-04-27T10:48:09.473Z,46.50
2023-04-27T10:50:37.333Z,46.90
2023-04-27T10:53:06.563Z,47.80
2023-04-27T10:55:35.543Z,47.70
2023-04-27T10:58:04.355Z,47.30
2023-04-27T11:00:38.260Z,48.30
2023-04-27T11:03:15.564Z,48.10
2023-04-27T11:05:45.005Z,47.40
2023-04-27T11:08:16.035Z,47.30
2023-04-27T11:10:45.998Z,46.70
2023-04-27T11:13:16.039Z,45.10
2023-04-27T11:15:47.971Z,45.20
2023-04-27T11:18:17.189Z,45.70
2023-04-27T11:20:49.016Z,46.00
2023-04-27T11:23:25.901Z,44.10
2023-04-27T11:25:54.459Z,44.10
2023-04-27T11:28:22.760Z,44.00
2023-04-27T11:30:58.183Z,44.30
2023-04-27T11:33:26.280Z,44.50
2023-04-27T11:35:54.604Z,44.60
2023-04-27T11:38:22.746Z,44.00
2023-04-27T11:41:01.242Z,44.20
2023-04-27T11:43:30.017Z,43.70
2023-04-27T11:45:59.533Z,44.10
2023-04-27T11:48:29.008Z,44.40
2023-04-27T11:51:01.038Z,44.20
2023-04-27T11:53:33.791Z,43.80
2023-04-27T11:56:05.070Z,44.50
2023-04-27T11:58:35.912Z,43.70
2023-04-27T12:01:05.370Z,42.90
2023-04-27T12:03:33.621Z,43.00
2023-04-27T12:08:32.562Z,42.40
2023-04-27T12:11:00.394Z,43.00
2023-04-27T12:13:28.528Z,44.10
2023-04-27T12:15:57.317Z,43.20
2023-04-27T12:18:27.653Z,43.80
2023-04-27T12:20:55.452Z,43.20
2023-04-27T12:23:23.392Z,42.20
2023-04-27T12:25:51.692Z,43.60
2023-04-27T12:28:20.470Z,42.30
2023-04-27T12:30:49.796Z,41.50
2023-04-27T12:33:17.915Z,43.00
2023-04-27T12:35:47.728Z,43.00
2023-04-27T12:38:15.742Z,42.70
2023-04-27T12:40:44.187Z,43.50
2023-04-27T12:43:12.981Z,42.70
2023-04-27T12:45:41.069Z,43.30
2023-04-27T12:48:08.938Z,42.70
2023-04-27T12:50:38.830Z,40.80
2023-04-27T12:53:07.997Z,41.90
2023-04-27T12:55:36.799Z,42.00
2023-04-27T12:58:05.222Z,41.90
2023-04-27T13:00:34.172Z,42.30
2023-04-27T13:03:02.083Z,41.70
2023-04-27T13:05:31.904Z,43.40
2023-04-27T13:08:00.294Z,43.00
2023-04-27T13:10:29.919Z,43.10
2023-04-27T13:12:58.783Z,42.40
2023-04-27T13:15:26.606Z,43.30
2023-04-27T13:17:57.630Z,41.50
2023-04-27T13:20:25.565Z,41.80
2023-04-27T13:22:53.530Z,42.70
2023-04-27T13:25:21.508Z,42.70
2023-04-27T13:27:51.671Z,42.80
2023-04-27T13:30:21.974Z,42.70
2023-04-27T13:32:50.758Z,42.20
2023-04-27T13:35:18.785Z,41.60
2023-04-27T13:37:46.753Z,42.50
2023-04-27T13:40:15.305Z,42.50
2023-04-27T13:42:43.090Z,44.00
2023-04-27T13:45:13.041Z,42.00
2023-04-27T13:47:41.090Z,41.50
2023-04-27T13:50:10.857Z,41.70
2023-04-27T13:52:39.714Z,41.80
2023-04-27T13:55:10.602Z,41.70
2023-04-27T13:57:38.691Z,40.30
2023-04-27T14:00:11.682Z,40.10
2023-04-27T14:02:41.287Z,39.30
2023-04-27T14:05:09.725Z,39.30
2023-04-27T14:07:37.720Z,39.90
2023-04-27T14:10:06.894Z,40.30
2023-04-27T14:12:35.799Z,40.20
2023-04-27T14:15:05.189Z,40.20
2023-04-27T14:17:33.070Z,38.80
2023-04-27T14:20:02.322Z,38.90
2023-04-27T14:22:31.464Z,38.40
2023-04-27T14:24:59.294Z,38.60
2023-04-27T14:27:27.296Z,38.70
2023-04-27T14:29:55.248Z,38.70
2023-04-27T14:32:23.401Z,39.30
2023-04-27T14:34:51.509Z,39.20
2023-04-27T14:37:20.847Z,39.00
2023-04-27T14:39:48.885Z,39.70
2023-04-27T14:42:16.729Z,39.70
2023-04-27T14:44:44.540Z,40.10
2023-04-27T14:47:12.868Z,39.50
2023-04-27T14:49:41.287Z,41.30
2023-04-27T14:52:09.325Z,39.80
2023-04-27T14:54:41.525Z,39.50
2023-04-27T14:57:09.741Z,39.40
2023-04-27T14:59:37.527Z,39.80
2023-04-27T15:02:05.721Z,39.40
2023-04-27T15:04:35.348Z,37.60
2023-04-27T15:07:03.281Z,37.80
2023-04-27T15:09:31.200Z,37.80
2023-04-27T15:12:01.849Z,37.50
2023-04-27T15:14:29.895Z,36.60
2023-04-27T15:16:57.783Z,36.50
2023-04-27T15:19:26.033Z,37.00
2023-04-27T15:21:54.037Z,37.30
2023-04-27T15:24:22.061Z,36.30
2023-04-27T15:26:50.580Z,36.10
2023-04-27T15:29:19.909Z,36.10
2023-04-27T15:31:48.891Z,36.20
2023-04-27T15:34:16.924Z,36.00
2023-04-27T15:36:45.136Z,36.30
2023-04-27T15:39:13.518Z,36.20
2023-04-27T15:41:41.665Z,36.10
2023-04-27T15:44:09.567Z,36.00
2023-04-27T15:46:38.847Z,36.20
2023-04-27T15:49:07.091Z,35.60
2023-04-27T15:51:34.888Z,34.70
2023-04-27T15:54:02.966Z,35.00
2023-04-27T15:56:30.998Z,35.60
2023-04-27T15:58:59.194Z,35.30
2023-04-27T16:01:27.587Z,34.50
2023-04-27T16:03:57.030Z,35.30
2023-04-27T16:06:31.640Z,35.50
2023-04-27T16:08:59.670Z,35.20
2023-04-27T16:11:27.517Z,35.10
2023-04-27T16:13:55.452Z,35.70
2023-04-27T16:16:23.373Z,35.50
2023-04-27T16:18:51.261Z,34.90
2023-04-27T16:21:20.619Z,35.80
2023-04-27T16:23:48.771Z,34.20
2023-04-27T16:26:16.784Z,34.80
2023-04-27T16:28:44.579Z,34.80
2023-04-27T16:31:13.498Z,35.10
2023-04-27T16:33:41.619Z,34.40
2023-04-27T16:36:11.551Z,34.80
2023-04-27T16:38:40.914Z,34.90
2023-04-27T16:41:09.154Z,34.80
2023-04-27T16:43:37.044Z,34.60
2023-04-27T16:46:05.135Z,34.40
2023-04-27T16:48:33.046Z,34.90
2023-04-27T16:51:01.075Z,35.70
2023-04-27T16:53:28.991Z,34.90
2023-04-27T16:56:00.730Z,35.10
2023-04-27T16:58:29.390Z,35.50
2023-04-27T17:00:57.923Z,35.20
2023-04-27T17:03:26.878Z,35.90
2023-04-27T17:05:54.724Z,36.20
2023-04-27T17:08:22.561Z,36.40
2023-04-27T17:10:50.846Z,36.50
2023-04-27T17:13:20.079Z,36.30
2023-04-27T17:15:48.174Z,36.40
2023-04-27T17:18:16.137Z,36.80
2023-04-27T17:20:44.297Z,36.90
2023-04-27T17:23:12.575Z,37.10
2023-04-27T17:25:41.373Z,37.00
2023-04-27T17:28:09.280Z,37.00
2023-04-27T17:30:38.567Z,37.00
2023-04-27T17:33:06.775Z,37.20
2023-04-27T17:35:34.670Z,37.40
2023-04-27T17:38:02.713Z,37.20
2023-04-27T17:40:31.746Z,36.50
2023-04-27T17:43:00.170Z,37.40
2023-04-27T17:45:28.997Z,37.60
2023-04-27T17:47:58.357Z,37.40
2023-04-27T17:50:26.882Z,37.20
2023-04-27T17:52:55.071Z,37.70
2023-04-27T17:55:23.211Z,37.40
2023-04-27T17:57:51.520Z,37.70
2023-04-27T18:00:19.964Z,37.50
2023-04-27T18:02:49.882Z,37.90
2023-04-27T18:05:19.368Z,38.10
2023-04-27T18:07:47.597Z,38.30
2023-04-27T18:10:15.772Z,38.60
2023-04-27T18:12:44.142Z,38.80
2023-04-27T18:15:12.937Z,38.90
2023-04-27T18:17:41.069Z,39.00
2023-04-27T18:20:10.770Z,39.40
2023-04-27T18:22:41.264Z,39.20
2023-04-27T18:25:10.887Z,39.70
2023-04-27T18:27:38.918Z,39.30
2023-04-27T18:30:08.771Z,39.10
2023-04-27T18:32:37.003Z,39.50
2023-04-27T18:35:06.316Z,39.60
2023-04-27T18:37:34.114Z,39.70
2023-04-27T18:40:05.803Z,39.90
2023-04-27T18:42:33.681Z,39.90
2023-04-27T18:45:01.863Z,40.10
2023-04-27T18:47:29.810Z,40.00
2023-04-27T18:49:57.643Z,40.00
2023-04-27T18:52:25.529Z,40.10
2023-04-27T18:54:53.366Z,40.10
2023-04-27T18:57:22.669Z,40.00
2023-04-27T18:59:50.732Z,40.30
2023-04-27T19:02:18.660Z,40.10
2023-04-27T19:04:52.846Z,40.50
2023-04-27T19:07:29.882Z,40.50
2023-04-27T19:09:57.692Z,40.50
2023-04-27T19:12:27.066Z,40.60
2023-04-27T19:14:55.026Z,40.40
2023-04-27T19:17:23.154Z,41.30
2023-04-27T19:19:51.343Z,40.60
2023-04-27T19:22:19.197Z,40.40
2023-04-27T19:24:47.003Z,40.50
2023-04-27T19:27:14.905Z,40.70
2023-04-27T19:29:55.207Z,40.60
2023-04-27T19:32:25.227Z,40.70
2023-04-27T19:34:53.482Z,40.80
2023-04-27T19:37:21.793Z,41.00
2023-04-27T19:39:49.947Z,41.00
2023-04-27T19:42:17.807Z,42.90
2023-04-27T19:44:45.932Z,40.90
2023-04-27T19:47:15.858Z,41.00
2023-04-27T19:49:43.660Z,40.90
2023-04-27T19:52:11.550Z,41.20
2023-04-27T19:54:39.416Z,41.00
2023-04-27T19:57:07.245Z,41.10
2023-04-27T19:59:35.126Z,41.10
2023-04-27T20:02:03.045Z,41.30
2023-04-27T20:04:32.880Z,41.30
2023-04-27T20:07:01.165Z,41.10
2023-04-27T20:09:29.011Z,41.30
2023-04-27T20:11:56.854Z,41.30
2023-04-27T20:14:24.941Z,41.50
2023-04-27T20:16:52.985Z,41.70
2023-04-27T20:19:22.562Z,41.70
2023-04-27T20:21:51.786Z,41.70
2023-04-27T20:24:19.711Z,41.90
2023-04-27T20:26:47.576Z,42.10
2023-04-27T20:29:16.015Z,42.00
2023-04-27T20:31:44.813Z,42.40
2023-04-27T20:34:13.598Z,42.30
2023-04-27T20:36:41.692Z,42.30
2023-04-27T20:39:11.897Z,42.50
2023-04-27T20:41:41.907Z,42.70
2023-04-27T20:44:10.510Z,42.60
2023-04-27T20:46:38.937Z,42.80
2023-04-27T20:49:06.990Z,42.90
2023-04-27T20:51:34.808Z,42.80
2023-04-27T20:54:02.772Z,42.80
2023-04-27T20:56:32.917Z,42.90
2023-04-27T20:59:00.900Z,42.80
2023-04-27T21:01:28.783Z,42.70
2023-04-27T21:03:56.800Z,42.70
2023-04-27T21:06:24.711Z,42.70
2023-04-27T21:08:52.649Z,42.60
2023-04-27T21:11:21.175Z,42.60
2023-04-27T21:13:50.596Z,42.60
2023-04-27T21:16:18.449Z,44.20
2023-04-27T21:18:46.395Z,42.80
2023-04-27T21:21:14.338Z,42.80
2023-04-27T21:23:42.117Z,42.90
2023-04-27T21:26:10.761Z,43.00
2023-04-27T21:28:40.167Z,43.10
2023-04-27T21:31:09.627Z,43.90
2023-04-27T21:33:38.082Z,43.10
2023-04-27T21:36:09.620Z,43.10
2023-04-27T21:38:37.461Z,43.10
2023-04-27T21:41:05.271Z,43.20
2023-04-27T21:43:33.106Z,43.20
2023-04-27T21:46:01.215Z,43.30
2023-04-27T21:48:30.363Z,43.00
2023-04-27T21:50:58.248Z,43.50
2023-04-27T21:53:26.332Z,43.30
2023-04-27T21:55:57.108Z,43.70
2023-04-27T21:58:24.995Z,43.80
2023-04-27T22:00:52.818Z,43.70
2023-04-27T22:03:21.566Z,43.60
2023-04-27T22:05:52.748Z,43.90
2023-04-27T22:08:21.698Z,44.00
2023-04-27T22:10:49.792Z,44.10
2023-04-27T22:13:19.441Z,43.90
2023-04-27T22:15:48.591Z,45.00
2023-04-27T22:18:16.519Z,44.60
2023-04-27T22:20:44.678Z,44.60
2023-04-27T22:23:14.450Z,44.60
2023-04-27T22:25:43.371Z,44.80
2023-04-27T22:28:11.566Z,44.80
2023-04-27T22:30:40.853Z,45.20
2023-04-27T22:33:09.262Z,45.10
2023-04-27T22:35:38.297Z,45.20
2023-04-27T22:38:06.986Z,45.30
2023-04-27T22:40:36.267Z,45.30
2023-04-27T22:43:04.178Z,45.50
2023-04-27T22:45:32.043Z,45.40
2023-04-27T22:47:59.917Z,45.40
2023-04-27T22:50:27.745Z,45.50
2023-04-27T22:52:55.572Z,45.60
2023-04-27T22:55:23.454Z,45.60
2023-04-27T22:57:53.878Z,45.70
2023-04-27T23:00:22.369Z,45.80
2023-04-27T23:02:50.647Z,45.80
2023-04-27T23:05:18.650Z,45.60
2023-04-27T23:07:46.599Z,45.80
2023-04-27T23:10:15.067Z,45.70
2023-04-27T23:12:42.919Z,45.90
2023-04-27T23:15:12.865Z,45.70
2023-04-27T23:17:41.191Z,45.90
2023-04-27T23:20:24.242Z,45.90
2023-04-27T23:22:55.785Z,46.10
2023-04-27T23:25:23.722Z,45.80
2023-04-27T23:27:52.745Z,45.90
2023-04-27T23:30:23.207Z,46.00
2023-04-27T23:32:51.149Z,46.20
2023-04-27T23:35:19.221Z,46.10
2023-04-27T23:37:47.257Z,46.20
2023-04-27T23:40:15.544Z,46.20
2023-04-27T23:42:43.494Z,46.80
2023-04-27T23:45:12.536Z,46.40
2023-04-27T23:47:42.145Z,46.60
2023-04-27T23:50:10.632Z,46.50
2023-04-27T23:52:38.472Z,46.50
2023-04-27T23:55:07.346Z,46.60
2023-04-27T23:57:35.149Z,46.50
